KGUY Airport (Guymon Muni) Information

FAA: GUY - ICAO: KGUY

KGUY Airport Location

State Oklahoma
County Texas
City Guymon
KGUY Airport is 1 miles west of Guymon, OK.
Latitude 36-41-02.9597N
Longitude 101-30-25.0871W
Elevation 3,125ft

KGUY Airport METARs

METAR KGUY 262153Z AUTO 21013KT 10SM CLR 22/M12 A3000 RMK AO2 SLP141 T02171122
Altimeter 30.00"
Temperature 21.7°C (71.1°F)
Wind 210° at 13KT
Clouds Skies are clear.
Visibility 10.0mi
Time observed: 2021-11-26T21:53:00Z

KGUY Airport Details

Status Operational
Activation May 1949
Ownership Public
Usage Public
Chart WICHITA
ATC on-site No
Beacon schedule sunset-sunrise
Beacon color clear green

KGUY Airport Contacts

Owner CITY OF GUYMON
Owner address 424 N MAIN, GUYMON, OK 73942
Owner phone 580-338-3396
Manager DONNIE COLEMAN
Manager address CITY HALL PO BOX 399, FREDERICK, OK 73542
Manager phone 580-335-2421

KGUY Airport (Guymon Muni) Radio Frequencies

KGUY (Airport) Radio Frequencies

UNICOM 122.7
Common traffic advisory frequency (CTAF) 122.7